Terminal Aerodrome Forecast
Issued by NWS

Home | Current Version | Previous Version | Text Only | Print | Product List | Glossary On
Versions: 1 2 3 4 5 6 7 8 9 10 11 12 13 14 15 16 17 18 19 20 21 22
000
FTUS41 KCAR 290200 AAA
TAFBHB
TAF AMD
KBHB 290200Z 2902/2924 18007KT 1SM -DZ BR OVC002
     FM290700 19010KT 1/2SM FG OVC001
     FM291000 20010KT 1/2SM FG BKN002 OVC015
     FM291300 21010KT P6SM SCT015
      AMD LTD TO CLD VIS AND WIND=

USA.gov is the U.S. government's official web portal to all federal, state and local government web resources and services.